sensor_id;sensor_type;location;lat;lon;timestamp;pressure;altitude;pressure_sealevel;temperature;humidity
60676;BME280;46716;38.014;-7.874;2022-08-03T00:00:08;99649.06;;;22.39;65.71
60676;BME280;46716;38.014;-7.874;2022-08-03T00:02:15;99640.41;;;22.27;66.02
60676;BME280;46716;38.014;-7.874;2022-08-03T00:04:16;99629.72;;;22.17;66.55
60676;BME280;46716;38.014;-7.874;2022-08-03T00:06:17;99633.88;;;22.11;66.57
60676;BME280;46716;38.014;-7.874;2022-08-03T00:08:18;99647.31;;;22.11;66.57
60676;BME280;46716;38.014;-7.874;2022-08-03T00:10:19;99641.22;;;22.09;67.16
60676;BME280;46716;38.014;-7.874;2022-08-03T00:12:20;99634.25;;;21.98;67.19
60676;BME280;46716;38.014;-7.874;2022-08-03T00:14:21;99634.41;;;21.96;67.85
60676;BME280;46716;38.014;-7.874;2022-08-03T00:16:22;99651.22;;;21.98;67.63
60676;BME280;46716;38.014;-7.874;2022-08-03T00:18:24;99650.22;;;22.00;67.83
60676;BME280;46716;38.014;-7.874;2022-08-03T00:20:25;99653.38;;;21.95;68.37
60676;BME280;46716;38.014;-7.874;2022-08-03T00:22:26;99643.50;;;21.85;68.15
60676;BME280;46716;38.014;-7.874;2022-08-03T00:24:27;99647.72;;;21.88;68.32
60676;BME280;46716;38.014;-7.874;2022-08-03T00:26:28;99653.41;;;21.85;68.48
60676;BME280;46716;38.014;-7.874;2022-08-03T00:28:29;99634.50;;;21.77;68.68
60676;BME280;46716;38.014;-7.874;2022-08-03T00:30:31;99650.34;;;21.80;68.82
60676;BME280;46716;38.014;-7.874;2022-08-03T00:32:32;99642.72;;;21.75;69.05
60676;BME280;46716;38.014;-7.874;2022-08-03T00:34:32;99642.72;;;21.75;68.91
60676;BME280;46716;38.014;-7.874;2022-08-03T00:36:33;99650.91;;;21.73;69.02
60676;BME280;46716;38.014;-7.874;2022-08-03T00:38:34;99643.28;;;21.69;69.17
60676;BME280;46716;38.014;-7.874;2022-08-03T00:40:35;99644.72;;;21.63;69.30
60676;BME280;46716;38.014;-7.874;2022-08-03T00:42:49;99643.59;;;21.66;69.54
60676;BME280;46716;38.014;-7.874;2022-08-03T00:44:50;99650.09;;;21.63;69.72
60676;BME280;46716;38.014;-7.874;2022-08-03T00:46:51;99639.66;;;21.60;69.96
60676;BME280;46716;38.014;-7.874;2022-08-03T00:48:52;99629.50;;;21.54;70.27
60676;BME280;46716;38.014;-7.874;2022-08-03T00:50:53;99630.09;;;21.47;70.34
60676;BME280;46716;38.014;-7.874;2022-08-03T00:52:57;99628.13;;;21.50;71.02
60676;BME280;46716;38.014;-7.874;2022-08-03T00:54:59;99628.69;;;21.43;71.14
60676;BME280;46716;38.014;-7.874;2022-08-03T00:57:00;99631.16;;;21.37;71.92
60676;BME280;46716;38.014;-7.874;2022-08-03T00:59:02;99635.28;;;21.31;72.21
60676;BME280;46716;38.014;-7.874;2022-08-03T01:01:03;99621.88;;;21.21;72.57
60676;BME280;46716;38.014;-7.874;2022-08-03T01:03:08;99639.22;;;21.27;72.73
60676;BME280;46716;38.014;-7.874;2022-08-03T01:05:09;99620.88;;;21.22;72.74
60676;BME280;46716;38.014;-7.874;2022-08-03T01:07:24;99624.56;;;21.21;73.03
60676;BME280;46716;38.014;-7.874;2022-08-03T01:09:49;99625.28;;;21.13;72.85
60676;BME280;46716;38.014;-7.874;2022-08-03T01:17:01;99625.91;;;20.87;74.72
60676;BME280;46716;38.014;-7.874;2022-08-03T01:19:35;99617.56;;;20.80;75.36
60676;BME280;46716;38.014;-7.874;2022-08-03T01:26:27;99605.03;;;20.61;76.74
60676;BME280;46716;38.014;-7.874;2022-08-03T01:31:05;99613.66;;;20.55;77.48
60676;BME280;46716;38.014;-7.874;2022-08-03T01:33:19;99613.34;;;20.58;77.65
60676;BME280;46716;38.014;-7.874;2022-08-03T01:35:49;99610.69;;;20.58;77.74
60676;BME280;46716;38.014;-7.874;2022-08-03T01:37:53;99616.78;;;20.50;77.90
60676;BME280;46716;38.014;-7.874;2022-08-03T01:39:57;99601.53;;;20.41;78.09
60676;BME280;46716;38.014;-7.874;2022-08-03T01:42:00;99621.28;;;20.50;78.42
60676;BME280;46716;38.014;-7.874;2022-08-03T01:44:08;99615.63;;;20.53;78.42
60676;BME280;46716;38.014;-7.874;2022-08-03T01:46:11;99607.16;;;20.47;78.60
60676;BME280;46716;38.014;-7.874;2022-08-03T01:48:16;99608.41;;;20.53;78.62
60676;BME280;46716;38.014;-7.874;2022-08-03T01:50:21;99617.91;;;20.57;78.50
60676;BME280;46716;38.014;-7.874;2022-08-03T01:52:24;99609.13;;;20.55;78.25
60676;BME280;46716;38.014;-7.874;2022-08-03T01:54:26;99596.44;;;20.47;78.26
60676;BME280;46716;38.014;-7.874;2022-08-03T01:56:29;99593.63;;;20.39;78.67
60676;BME280;46716;38.014;-7.874;2022-08-03T01:58:31;99595.31;;;20.40;78.51
60676;BME280;46716;38.014;-7.874;2022-08-03T02:00:35;99605.47;;;20.46;78.67
60676;BME280;46716;38.014;-7.874;2022-08-03T02:02:37;99595.06;;;20.33;78.67
60676;BME280;46716;38.014;-7.874;2022-08-03T02:04:40;99588.44;;;20.28;78.97
60676;BME280;46716;38.014;-7.874;2022-08-03T02:06:44;99600.41;;;20.33;79.03
60676;BME280;46716;38.014;-7.874;2022-08-03T02:08:47;99599.56;;;20.33;79.02
60676;BME280;46716;38.014;-7.874;2022-08-03T02:10:50;99607.19;;;20.28;79.06
60676;BME280;46716;38.014;-7.874;2022-08-03T02:12:52;99598.31;;;20.17;78.83
60676;BME280;46716;38.014;-7.874;2022-08-03T02:14:54;99601.13;;;20.16;79.39
60676;BME280;46716;38.014;-7.874;2022-08-03T02:16:56;99605.19;;;20.10;79.30
60676;BME280;46716;38.014;-7.874;2022-08-03T02:18:59;99605.16;;;20.00;79.65
60676;BME280;46716;38.014;-7.874;2022-08-03T02:21:02;99595.97;;;19.83;79.84
60676;BME280;46716;38.014;-7.874;2022-08-03T02:23:04;99607.94;;;19.79;80.39
60676;BME280;46716;38.014;-7.874;2022-08-03T02:25:11;99596.47;;;19.67;80.41
60676;BME280;46716;38.014;-7.874;2022-08-03T02:27:21;99600.59;;;19.71;80.40
60676;BME280;46716;38.014;-7.874;2022-08-03T02:29:25;99594.66;;;19.67;80.49
60676;BME280;46716;38.014;-7.874;2022-08-03T02:31:28;99601.56;;;19.70;80.56
60676;BME280;46716;38.014;-7.874;2022-08-03T02:33:37;99601.28;;;19.63;80.45
60676;BME280;46716;38.014;-7.874;2022-08-03T02:35:39;99604.97;;;19.62;80.47
60676;BME280;46716;38.014;-7.874;2022-08-03T02:37:45;99609.31;;;19.63;80.65
60676;BME280;46716;38.014;-7.874;2022-08-03T02:39:49;99611.28;;;19.61;80.78
60676;BME280;46716;38.014;-7.874;2022-08-03T02:41:55;99615.09;;;19.68;80.67
60676;BME280;46716;38.014;-7.874;2022-08-03T02:44:07;99615.81;;;19.70;80.87
60676;BME280;46716;38.014;-7.874;2022-08-03T02:46:09;99619.50;;;19.69;81.32
60676;BME280;46716;38.014;-7.874;2022-08-03T02:48:25;99614.97;;;19.70;81.56
60676;BME280;46716;38.014;-7.874;2022-08-03T02:50:28;99614.13;;;19.69;81.85
60676;BME280;46716;38.014;-7.874;2022-08-03T02:52:32;99608.19;;;19.66;81.97
60676;BME280;46716;38.014;-7.874;2022-08-03T02:54:35;99615.22;;;19.67;82.39
60676;BME280;46716;38.014;-7.874;2022-08-03T02:56:38;99624.25;;;19.66;83.00
60676;BME280;46716;38.014;-7.874;2022-08-03T02:58:42;99608.72;;;19.59;82.92
60676;BME280;46716;38.014;-7.874;2022-08-03T03:00:43;99604.91;;;19.52;83.12
60676;BME280;46716;38.014;-7.874;2022-08-03T03:02:45;99612.09;;;19.52;83.21
60676;BME280;46716;38.014;-7.874;2022-08-03T03:04:49;99624.50;;;19.53;83.04
60676;BME280;46716;38.014;-7.874;2022-08-03T03:06:50;99603.50;;;19.48;83.19
60676;BME280;46716;38.014;-7.874;2022-08-03T03:08:52;99614.34;;;19.46;83.05
60676;BME280;46716;38.014;-7.874;2022-08-03T03:10:56;99616.53;;;19.31;83.52
60676;BME280;46716;38.014;-7.874;2022-08-03T03:12:58;99613.34;;;19.16;84.88
60676;BME280;46716;38.014;-7.874;2022-08-03T03:15:00;99594.06;;;18.91;85.79
60676;BME280;46716;38.014;-7.874;2022-08-03T03:17:02;99619.69;;;18.94;86.91
60676;BME280;46716;38.014;-7.874;2022-08-03T03:19:03;99608.94;;;18.84;87.85
60676;BME280;46716;38.014;-7.874;2022-08-03T03:21:06;99614.28;;;18.84;88.58
60676;BME280;46716;38.014;-7.874;2022-08-03T03:23:08;99606.91;;;18.76;89.04
60676;BME280;46716;38.014;-7.874;2022-08-03T03:25:09;99613.94;;;18.77;89.45
60676;BME280;46716;38.014;-7.874;2022-08-03T03:27:13;99607.91;;;18.75;89.49
60676;BME280;46716;38.014;-7.874;2022-08-03T03:29:14;99604.38;;;18.75;89.61
60676;BME280;46716;38.014;-7.874;2022-08-03T03:31:16;99609.06;;;18.82;90.33
60676;BME280;46716;38.014;-7.874;2022-08-03T03:33:17;99620.34;;;18.86;90.32
60676;BME280;46716;38.014;-7.874;2022-08-03T03:35:18;99620.59;;;18.83;90.61
60676;BME280;46716;38.014;-7.874;2022-08-03T03:37:19;99616.50;;;18.79;90.68
60676;BME280;46716;38.014;-7.874;2022-08-03T03:39:20;99607.78;;;18.77;91.23
60676;BME280;46716;38.014;-7.874;2022-08-03T03:41:21;99615.13;;;18.84;91.18
60676;BME280;46716;38.014;-7.874;2022-08-03T03:43:23;99601.88;;;18.83;91.31
60676;BME280;46716;38.014;-7.874;2022-08-03T03:45:24;99612.41;;;18.96;91.40
60676;BME280;46716;38.014;-7.874;2022-08-03T03:47:27;99612.25;;;18.98;91.08
60676;BME280;46716;38.014;-7.874;2022-08-03T03:49:29;99605.06;;;18.98;90.99
60676;BME280;46716;38.014;-7.874;2022-08-03T03:51:32;99615.00;;;19.07;90.94
60676;BME280;46716;38.014;-7.874;2022-08-03T03:53:33;99604.78;;;19.13;90.92
60676;BME280;46716;38.014;-7.874;2022-08-03T03:55:34;99616.09;;;19.26;90.58
60676;BME280;46716;38.014;-7.874;2022-08-03T03:57:35;99614.97;;;19.29;89.97
60676;BME280;46716;38.014;-7.874;2022-08-03T03:59:40;99621.75;;;19.33;89.73
60676;BME280;46716;38.014;-7.874;2022-08-03T04:01:41;99604.13;;;19.30;89.42
60676;BME280;46716;38.014;-7.874;2022-08-03T04:03:42;99612.31;;;19.39;89.27
60676;BME280;46716;38.014;-7.874;2022-08-03T04:05:43;99608.66;;;19.40;89.22
60676;BME280;46716;38.014;-7.874;2022-08-03T04:08:06;99603.03;;;19.43;89.21
60676;BME280;46716;38.014;-7.874;2022-08-03T04:10:27;99611.06;;;19.43;89.44
60676;BME280;46716;38.014;-7.874;2022-08-03T04:12:50;99593.72;;;19.37;89.40
60676;BME280;46716;38.014;-7.874;2022-08-03T04:14:53;99605.03;;;19.41;89.45
60676;BME280;46716;38.014;-7.874;2022-08-03T04:16:58;99610.94;;;19.44;89.37
60676;BME280;46716;38.014;-7.874;2022-08-03T04:19:25;99609.25;;;19.43;89.33
60676;BME280;46716;38.014;-7.874;2022-08-03T04:21:24;99606.56;;;19.43;89.43
60676;BME280;46716;38.014;-7.874;2022-08-03T04:23:30;99611.19;;;19.41;89.36
60676;BME280;46716;38.014;-7.874;2022-08-03T04:25:35;99603.00;;;19.33;89.50
60676;BME280;46716;38.014;-7.874;2022-08-03T04:27:39;99599.63;;;19.31;90.04
60676;BME280;46716;38.014;-7.874;2022-08-03T04:29:45;99612.47;;;19.37;90.47
60676;BME280;46716;38.014;-7.874;2022-08-03T04:31:47;99615.00;;;19.39;90.48
60676;BME280;46716;38.014;-7.874;2022-08-03T04:33:51;99614.75;;;19.42;90.32
60676;BME280;46716;38.014;-7.874;2022-08-03T04:35:54;99614.19;;;19.38;90.21
60676;BME280;46716;38.014;-7.874;2022-08-03T04:38:01;99620.75;;;19.34;90.21
60676;BME280;46716;38.014;-7.874;2022-08-03T04:40:05;99605.94;;;19.20;90.74
60676;BME280;46716;38.014;-7.874;2022-08-03T04:42:07;99620.41;;;19.17;91.42
60676;BME280;46716;38.014;-7.874;2022-08-03T04:44:11;99609.41;;;19.11;91.80
60676;BME280;46716;38.014;-7.874;2022-08-03T04:46:14;99620.41;;;19.17;92.10
60676;BME280;46716;38.014;-7.874;2022-08-03T04:48:15;99613.34;;;19.16;92.19
60676;BME280;46716;38.014;-7.874;2022-08-03T04:50:17;99614.63;;;19.12;91.94
60676;BME280;46716;38.014;-7.874;2022-08-03T04:52:38;99628.88;;;19.23;91.94
60676;BME280;46716;38.014;-7.874;2022-08-03T04:54:43;99620.41;;;19.17;91.98
60676;BME280;46716;38.014;-7.874;2022-08-03T04:56:45;99624.78;;;19.18;92.00
60676;BME280;46716;38.014;-7.874;2022-08-03T04:58:46;99618.00;;;19.14;92.11
60676;BME280;46716;38.014;-7.874;2022-08-03T05:00:47;99622.81;;;19.20;92.27
60676;BME280;46716;38.014;-7.874;2022-08-03T05:02:51;99632.81;;;19.18;91.99
60676;BME280;46716;38.014;-7.874;2022-08-03T05:04:53;99628.84;;;19.13;92.22
60676;BME280;46716;38.014;-7.874;2022-08-03T05:06:54;99629.69;;;19.13;92.38
60676;BME280;46716;38.014;-7.874;2022-08-03T05:08:58;99626.03;;;19.14;92.78
60676;BME280;46716;38.014;-7.874;2022-08-03T05:10:58;99622.63;;;19.12;92.93
60676;BME280;46716;38.014;-7.874;2022-08-03T05:12:59;99637.91;;;19.21;92.88
60676;BME280;46716;38.014;-7.874;2022-08-03T05:15:01;99632.56;;;19.21;92.52
60676;BME280;46716;38.014;-7.874;2022-08-03T05:17:03;99624.19;;;19.15;92.30
60676;BME280;46716;38.014;-7.874;2022-08-03T05:19:04;99639.97;;;19.18;92.35
60676;BME280;46716;38.014;-7.874;2022-08-03T05:21:04;99619.75;;;19.04;92.59
60676;BME280;46716;38.014;-7.874;2022-08-03T05:23:05;99631.25;;;19.16;92.81
60676;BME280;46716;38.014;-7.874;2022-08-03T05:25:06;99634.19;;;19.13;92.88
60676;BME280;46716;38.014;-7.874;2022-08-03T05:27:07;99639.28;;;19.16;92.88
60676;BME280;46716;38.014;-7.874;2022-08-03T05:29:08;99631.25;;;19.16;92.97
60676;BME280;46716;38.014;-7.874;2022-08-03T05:31:09;99629.41;;;19.16;92.86
60676;BME280;46716;38.014;-7.874;2022-08-03T05:33:11;99635.94;;;19.24;92.84
60676;BME280;46716;38.014;-7.874;2022-08-03T05:35:12;99639.31;;;19.26;92.67
60676;BME280;46716;38.014;-7.874;2022-08-03T05:37:13;99633.13;;;19.25;92.29
60676;BME280;46716;38.014;-7.874;2022-08-03T05:39:14;99641.00;;;19.27;92.22
60676;BME280;46716;38.014;-7.874;2022-08-03T05:41:15;99647.50;;;19.24;92.08
60676;BME280;46716;38.014;-7.874;2022-08-03T05:43:16;99641.53;;;19.20;92.41
60676;BME280;46716;38.014;-7.874;2022-08-03T05:45:17;99633.22;;;19.14;92.38
60676;BME280;46716;38.014;-7.874;2022-08-03T05:47:18;99617.56;;;19.09;92.29
60676;BME280;46716;38.014;-7.874;2022-08-03T05:49:19;99641.28;;;19.24;92.36
60676;BME280;46716;38.014;-7.874;2022-08-03T05:51:20;99637.03;;;19.21;92.22
60676;BME280;46716;38.014;-7.874;2022-08-03T05:53:21;99632.94;;;19.17;92.12
60676;BME280;46716;38.014;-7.874;2022-08-03T05:55:22;99655.38;;;19.26;92.30
60676;BME280;46716;38.014;-7.874;2022-08-03T05:57:24;99657.06;;;19.27;92.29
60676;BME280;46716;38.014;-7.874;2022-08-03T05:59:25;99661.47;;;19.28;91.80
60676;BME280;46716;38.014;-7.874;2022-08-03T06:01:26;99653.22;;;19.19;91.82
60676;BME280;46716;38.014;-7.874;2022-08-03T06:03:27;99658.97;;;19.15;91.62
60676;BME280;46716;38.014;-7.874;2022-08-03T06:05:28;99656.94;;;19.07;91.57
60676;BME280;46716;38.014;-7.874;2022-08-03T06:07:29;99661.50;;;18.95;92.41
60676;BME280;46716;38.014;-7.874;2022-08-03T06:09:30;99661.50;;;18.95;93.15
60676;BME280;46716;38.014;-7.874;2022-08-03T06:11:31;99647.09;;;18.86;93.36
60676;BME280;46716;38.014;-7.874;2022-08-03T06:13:31;99654.34;;;18.95;93.47
60676;BME280;46716;38.014;-7.874;2022-08-03T06:15:33;99655.25;;;19.06;93.40
60676;BME280;46716;38.014;-7.874;2022-08-03T06:17:43;99649.88;;;19.06;93.04
60676;BME280;46716;38.014;-7.874;2022-08-03T06:19:44;99655.88;;;19.10;92.76
60676;BME280;46716;38.014;-7.874;2022-08-03T06:21:45;99684.56;;;19.29;92.67
60676;BME280;46716;38.014;-7.874;2022-08-03T06:23:46;99672.88;;;19.30;92.39
60676;BME280;46716;38.014;-7.874;2022-08-03T06:25:47;99688.97;;;19.40;91.96
60676;BME280;46716;38.014;-7.874;2022-08-03T06:27:48;99685.06;;;19.44;91.64
60676;BME280;46716;38.014;-7.874;2022-08-03T06:29:49;99689.28;;;19.46;91.29
60676;BME280;46716;38.014;-7.874;2022-08-03T06:31:50;99688.16;;;19.49;91.05
60676;BME280;46716;38.014;-7.874;2022-08-03T06:33:51;99698.22;;;19.57;90.60
60676;BME280;46716;38.014;-7.874;2022-08-03T06:35:52;99688.63;;;19.54;90.27
60676;BME280;46716;38.014;-7.874;2022-08-03T06:37:53;99690.66;;;19.62;90.31
60676;BME280;46716;38.014;-7.874;2022-08-03T06:39:54;99690.44;;;19.54;89.71
60676;BME280;46716;38.014;-7.874;2022-08-03T06:41:55;99685.00;;;19.34;90.36
60676;BME280;46716;38.014;-7.874;2022-08-03T06:43:57;99686.06;;;19.21;90.75
60676;BME280;46716;38.014;-7.874;2022-08-03T06:45:58;99703.28;;;19.29;91.42
60676;BME280;46716;38.014;-7.874;2022-08-03T06:48:07;99702.44;;;19.28;91.78
60676;BME280;46716;38.014;-7.874;2022-08-03T06:50:09;99697.69;;;19.32;91.43
60676;BME280;46716;38.014;-7.874;2022-08-03T06:52:10;99707.88;;;19.38;91.15
60676;BME280;46716;38.014;-7.874;2022-08-03T06:54:11;99716.66;;;19.50;91.32
60676;BME280;46716;38.014;-7.874;2022-08-03T06:56:12;99710.06;;;19.54;90.82
60676;BME280;46716;38.014;-7.874;2022-08-03T06:58:13;99709.66;;;19.59;90.51
60676;BME280;46716;38.014;-7.874;2022-08-03T07:00:14;99711.50;;;19.68;90.13
60676;BME280;46716;38.014;-7.874;2022-08-03T07:02:15;99706.88;;;19.70;90.03
60676;BME280;46716;38.014;-7.874;2022-08-03T07:04:18;99714.09;;;19.80;89.69
60676;BME280;46716;38.014;-7.874;2022-08-03T07:06:19;99702.81;;;19.76;89.09
60676;BME280;46716;38.014;-7.874;2022-08-03T07:08:20;99694.75;;;19.76;88.11
60676;BME280;46716;38.014;-7.874;2022-08-03T07:10:20;99709.97;;;19.76;88.23
60676;BME280;46716;38.014;-7.874;2022-08-03T07:12:21;99721.56;;;19.86;88.41
60676;BME280;46716;38.014;-7.874;2022-08-03T07:14:22;99712.72;;;19.86;88.40
60676;BME280;46716;38.014;-7.874;2022-08-03T07:16:23;99704.94;;;19.82;88.30
60676;BME280;46716;38.014;-7.874;2022-08-03T07:18:24;99706.09;;;19.90;87.76
60676;BME280;46716;38.014;-7.874;2022-08-03T07:20:25;99722.81;;;20.03;87.41
60676;BME280;46716;38.014;-7.874;2022-08-03T07:22:26;99729.16;;;20.02;87.19
60676;BME280;46716;38.014;-7.874;2022-08-03T07:24:28;99717.25;;;19.95;87.21
60676;BME280;46716;38.014;-7.874;2022-08-03T07:26:28;99727.03;;;20.06;86.99
60676;BME280;46716;38.014;-7.874;2022-08-03T07:28:29;99715.75;;;20.02;86.83
60676;BME280;46716;38.014;-7.874;2022-08-03T07:30:30;99724.81;;;20.11;86.63
60676;BME280;46716;38.014;-7.874;2022-08-03T07:32:31;99730.31;;;20.19;86.04
60676;BME280;46716;38.014;-7.874;2022-08-03T07:34:32;99737.81;;;20.26;86.10
60676;BME280;46716;38.014;-7.874;2022-08-03T07:36:33;99733.03;;;20.29;85.29
60676;BME280;46716;38.014;-7.874;2022-08-03T07:38:34;99733.31;;;20.36;85.05
60676;BME280;46716;38.014;-7.874;2022-08-03T07:40:36;99730.38;;;20.39;84.14
60676;BME280;46716;38.014;-7.874;2022-08-03T07:42:37;99730.78;;;20.44;83.89
60676;BME280;46716;38.014;-7.874;2022-08-03T07:44:38;99727.41;;;20.42;83.82
60676;BME280;46716;38.014;-7.874;2022-08-03T07:46:39;99727.69;;;20.49;83.96
60676;BME280;46716;38.014;-7.874;2022-08-03T07:48:40;99732.63;;;20.54;83.80
60676;BME280;46716;38.014;-7.874;2022-08-03T07:50:41;99735.19;;;20.55;83.54
60676;BME280;46716;38.014;-7.874;2022-08-03T07:52:42;99736.59;;;20.59;83.31
60676;BME280;46716;38.014;-7.874;2022-08-03T07:54:50;99734.34;;;20.75;82.67
60676;BME280;46716;38.014;-7.874;2022-08-03T07:56:51;99741.25;;;20.87;81.91
60676;BME280;46716;38.014;-7.874;2022-08-03T07:58:51;99735.50;;;21.02;81.73
60676;BME280;46716;38.014;-7.874;2022-08-03T08:00:52;99733.31;;;21.25;80.86
60676;BME280;46716;38.014;-7.874;2022-08-03T08:02:53;99732.28;;;21.46;79.67
60676;BME280;46716;38.014;-7.874;2022-08-03T08:04:54;99743.53;;;21.69;78.00
60676;BME280;46716;38.014;-7.874;2022-08-03T08:06:55;99738.88;;;21.81;77.22
60676;BME280;46716;38.014;-7.874;2022-08-03T08:08:56;99744.69;;;21.77;75.98
60676;BME280;46716;38.014;-7.874;2022-08-03T08:11:01;99729.81;;;21.72;76.19
60676;BME280;46716;38.014;-7.874;2022-08-03T08:13:03;99740.50;;;21.92;75.77
60676;BME280;46716;38.014;-7.874;2022-08-03T08:15:05;99737.06;;;22.00;75.54
60676;BME280;46716;38.014;-7.874;2022-08-03T08:17:06;99741.50;;;22.19;73.84
60676;BME280;46716;38.014;-7.874;2022-08-03T08:19:07;99743.69;;;22.34;73.86
60676;BME280;46716;38.014;-7.874;2022-08-03T08:21:08;99744.94;;;22.58;73.55
60676;BME280;46716;38.014;-7.874;2022-08-03T08:23:09;99742.81;;;22.80;72.46
60676;BME280;46716;38.014;-7.874;2022-08-03T08:25:10;99745.50;;;22.98;71.48
60676;BME280;46716;38.014;-7.874;2022-08-03T08:27:11;99725.53;;;23.09;71.26
60676;BME280;46716;38.014;-7.874;2022-08-03T08:29:12;99730.38;;;23.23;70.91
60676;BME280;46716;38.014;-7.874;2022-08-03T08:31:16;99726.44;;;23.18;69.58
60676;BME280;46716;38.014;-7.874;2022-08-03T08:33:17;99716.56;;;23.27;69.81
60676;BME280;46716;38.014;-7.874;2022-08-03T08:35:18;99731.13;;;23.60;69.67
60676;BME280;46716;38.014;-7.874;2022-08-03T08:37:19;99728.69;;;23.75;68.47
60676;BME280;46716;38.014;-7.874;2022-08-03T08:39:20;99726.00;;;23.84;66.62
60676;BME280;46716;38.014;-7.874;2022-08-03T08:41:21;99724.56;;;23.98;66.72
60676;BME280;46716;38.014;-7.874;2022-08-03T08:43:22;99730.72;;;24.17;66.51
60676;BME280;46716;38.014;-7.874;2022-08-03T08:45:23;99729.41;;;24.37;65.81
60676;BME280;46716;38.014;-7.874;2022-08-03T08:47:25;99727.22;;;24.33;64.70
60676;BME280;46716;38.014;-7.874;2022-08-03T08:49:28;99726.75;;;24.46;64.97
60676;BME280;46716;38.014;-7.874;2022-08-03T08:51:30;99723.88;;;24.64;64.38
60676;BME280;46716;38.014;-7.874;2022-08-03T08:53:35;99722.25;;;24.88;63.57
60676;BME280;46716;38.014;-7.874;2022-08-03T08:55:36;99717.50;;;25.23;61.74
60676;BME280;46716;38.014;-7.874;2022-08-03T08:57:44;99720.19;;;25.40;61.03
60676;BME280;46716;38.014;-7.874;2022-08-03T08:59:47;99707.16;;;25.60;60.51
60676;BME280;46716;38.014;-7.874;2022-08-03T09:01:48;99705.88;;;25.80;59.64
60676;BME280;46716;38.014;-7.874;2022-08-03T09:03:48;99708.53;;;25.88;58.04
60676;BME280;46716;38.014;-7.874;2022-08-03T09:05:50;99721.97;;;26.13;57.98
60676;BME280;46716;38.014;-7.874;2022-08-03T09:07:52;99713.25;;;26.26;57.01
60676;BME280;46716;38.014;-7.874;2022-08-03T09:09:53;99718.38;;;26.52;57.78
60676;BME280;46716;38.014;-7.874;2022-08-03T09:11:54;99717.34;;;26.54;56.19
60676;BME280;46716;38.014;-7.874;2022-08-03T09:13:55;99713.25;;;26.58;56.98
60676;BME280;46716;38.014;-7.874;2022-08-03T09:16:10;99717.34;;;26.77;56.02
60676;BME280;46716;38.014;-7.874;2022-08-03T09:18:12;99696.53;;;27.01;55.05
60676;BME280;46716;38.014;-7.874;2022-08-03T09:20:14;99698.69;;;27.36;54.16
60676;BME280;46716;38.014;-7.874;2022-08-03T09:22:16;99713.78;;;27.69;53.03
60676;BME280;46716;38.014;-7.874;2022-08-03T09:24:20;99716.47;;;27.99;52.50
60676;BME280;46716;38.014;-7.874;2022-08-03T09:26:26;99709.78;;;28.16;50.60
60676;BME280;46716;38.014;-7.874;2022-08-03T09:28:33;99713.81;;;28.21;51.27
60676;BME280;46716;38.014;-7.874;2022-08-03T09:30:40;99701.34;;;28.26;50.11
60676;BME280;46716;38.014;-7.874;2022-08-03T09:32:42;99717.78;;;28.62;50.38
60676;BME280;46716;38.014;-7.874;2022-08-03T09:34:46;99710.94;;;28.88;50.09
60676;BME280;46716;38.014;-7.874;2022-08-03T09:36:49;99724.22;;;29.26;49.16
60676;BME280;46716;38.014;-7.874;2022-08-03T09:39:01;99715.09;;;29.41;47.91
60676;BME280;46716;38.014;-7.874;2022-08-03T09:41:16;99717.34;;;29.66;48.50
60676;BME280;46716;38.014;-7.874;2022-08-03T09:43:18;99727.56;;;29.99;47.47
60676;BME280;46716;38.014;-7.874;2022-08-03T09:45:26;99711.69;;;30.10;45.71
60676;BME280;46716;38.014;-7.874;2022-08-03T09:47:34;99708.84;;;30.32;46.07
60676;BME280;46716;38.014;-7.874;2022-08-03T09:49:42;99713.91;;;30.62;44.20
60676;BME280;46716;38.014;-7.874;2022-08-03T09:52:13;99712.88;;;30.63;43.12
60676;BME280;46716;38.014;-7.874;2022-08-03T09:54:35;99704.28;;;30.59;43.26
60676;BME280;46716;38.014;-7.874;2022-08-03T09:56:45;99702.88;;;30.90;43.93
60676;BME280;46716;38.014;-7.874;2022-08-03T09:58:46;99707.25;;;31.25;43.64
60676;BME280;46716;38.014;-7.874;2022-08-03T10:00:56;99695.47;;;31.52;42.07
60676;BME280;46716;38.014;-7.874;2022-08-03T10:03:03;99697.28;;;31.72;41.73
60676;BME280;46716;38.014;-7.874;2022-08-03T10:05:06;99703.06;;;32.02;41.44
60676;BME280;46716;38.014;-7.874;2022-08-03T10:07:09;99685.09;;;32.20;39.28
60676;BME280;46716;38.014;-7.874;2022-08-03T10:09:13;99687.94;;;32.39;39.34
60676;BME280;46716;38.014;-7.874;2022-08-03T10:11:31;99695.84;;;32.54;40.26
60676;BME280;46716;38.014;-7.874;2022-08-03T10:13:35;99690.88;;;32.70;40.29
60676;BME280;46716;38.014;-7.874;2022-08-03T10:15:38;99689.91;;;32.57;38.35
60676;BME280;46716;38.014;-7.874;2022-08-03T10:17:39;99676.09;;;32.45;38.06
60676;BME280;46716;38.014;-7.874;2022-08-03T10:19:41;99675.25;;;32.51;39.18
60676;BME280;46716;38.014;-7.874;2022-08-03T10:21:49;99691.72;;;32.70;37.96
60676;BME280;46716;38.014;-7.874;2022-08-03T10:23:52;99678.28;;;32.68;38.01
60676;BME280;46716;38.014;-7.874;2022-08-03T10:26:01;99686.75;;;32.86;38.10
60676;BME280;46716;38.014;-7.874;2022-08-03T10:28:03;99692.41;;;32.91;36.63
60676;BME280;46716;38.014;-7.874;2022-08-03T10:30:07;99690.47;;;32.91;37.21
60676;BME280;46716;38.014;-7.874;2022-08-03T10:32:17;99689.03;;;33.14;38.34
60676;BME280;46716;38.014;-7.874;2022-08-03T10:34:22;99686.66;;;33.43;37.58
60676;BME280;46716;38.014;-7.874;2022-08-03T10:36:26;99675.09;;;33.60;36.04
60676;BME280;46716;38.014;-7.874;2022-08-03T10:38:39;99692.16;;;33.93;35.83
60676;BME280;46716;38.014;-7.874;2022-08-03T10:40:43;99684.38;;;34.09;35.10
60676;BME280;46716;38.014;-7.874;2022-08-03T10:42:45;99687.31;;;34.26;35.16
60676;BME280;46716;38.014;-7.874;2022-08-03T10:44:49;99675.19;;;34.34;34.69
60676;BME280;46716;38.014;-7.874;2022-08-03T10:46:53;99671.31;;;34.53;32.93
60676;BME280;46716;38.014;-7.874;2022-08-03T10:48:55;99661.44;;;34.52;32.95
60676;BME280;46716;38.014;-7.874;2022-08-03T10:50:56;99671.84;;;34.74;33.61
60676;BME280;46716;38.014;-7.874;2022-08-03T10:53:02;99677.81;;;34.95;32.40
60676;BME280;46716;38.014;-7.874;2022-08-03T10:55:30;99668.72;;;35.06;32.82
60676;BME280;46716;38.014;-7.874;2022-08-03T10:57:53;99666.84;;;35.31;32.25